Time;durP1;ratioP1;P1;durP2;ratioP2;P2;SDS_P1;SDS_P2;PMS_P1;PMS_P2;Temp;Humidity;BMP_temperature;BMP_pressure;BME280_temperature;BME280_humidity;BME280_pressure;Samples;Min_cycle;Max_cycle;Signal;HPM_P1;HPM_P2
2022/07/11 00:01:36;;;;;;;0.50;0.50;;;18.10;99.90;18.60;102248.00;;;;5034750;28;20315;-66
2022/07/11 00:04:59;;;;;;;0.60;0.60;;;18.00;99.90;18.70;102286.00;;;;5035759;28;20171;-66
2022/07/11 00:07:49;;;;;;;0.57;0.57;;;17.90;99.90;18.90;102274.00;;;;5035862;28;20261;-66
2022/07/11 00:10:43;;;;;;;0.43;0.43;;;18.20;99.90;18.50;102273.00;;;;5035547;28;20175;-66
2022/07/11 00:13:38;;;;;;;0.50;0.50;;;18.00;99.90;18.90;102266.00;;;;5035807;28;20247;-66
2022/07/11 00:16:39;;;;;;;0.43;0.43;;;18.10;99.90;18.60;102268.00;;;;5051012;28;20171;-66
2022/07/11 00:19:28;;;;;;;0.50;0.50;;;18.00;99.90;18.70;102269.00;;;;5051143;28;20261;-66
2022/07/11 00:22:30;;;;;;;0.50;0.50;;;18.00;99.90;18.70;102272.00;;;;5035628;28;20375;-66
2022/07/11 00:25:31;;;;;;;0.60;0.60;;;18.00;99.90;18.60;102263.00;;;;5050868;28;20179;-66
2022/07/11 00:28:40;;;;;;;1.43;1.43;;;17.90;99.90;18.50;102253.00;;;;5035182;28;20182;-66
2022/07/11 00:31:40;;;;;;;0.60;0.60;;;17.80;99.90;19.00;102261.00;;;;5034895;28;20683;-66
2022/07/11 00:34:42;;;;;;;0.50;0.50;;;18.00;99.90;19.30;102260.00;;;;5050269;28;20205;-66
2022/07/11 00:37:31;;;;;;;0.60;0.60;;;18.40;99.90;19.10;102249.00;;;;5034049;28;20237;-66
2022/07/11 00:40:34;;;;;;;0.50;0.50;;;18.50;99.90;18.80;102238.00;;;;5050587;28;20185;-66
2022/07/11 00:43:39;;;;;;;0.60;0.60;;;18.20;99.90;18.70;102255.00;;;;5033830;28;20237;-67
2022/07/11 00:46:31;;;;;;;0.80;0.80;;;18.00;99.90;19.00;102243.00;;;;5050314;28;20220;-66
2022/07/11 00:49:20;;;;;;;1.00;1.00;;;18.20;99.90;18.80;102239.00;;;;5050306;28;20186;-66
2022/07/11 00:52:13;;;;;;;0.80;0.80;;;18.10;99.90;18.80;102249.00;;;;5049892;28;20205;-66
2022/07/11 00:55:14;;;;;;;1.27;1.17;;;18.10;99.90;18.80;102240.00;;;;5049259;28;20192;-66
2022/07/11 00:58:05;;;;;;;0.43;0.43;;;18.20;99.90;18.40;102244.00;;;;5050276;28;20534;-66
2022/07/11 01:00:57;;;;;;;0.50;0.50;;;18.20;99.90;18.30;102241.00;;;;5033677;28;20185;-66
2022/07/11 01:03:44;;;;;;;0.50;0.50;;;17.90;99.90;18.70;102230.00;;;;5050159;28;20191;-66
2022/07/11 01:06:28;;;;;;;0.50;0.50;;;17.90;99.90;19.10;102241.00;;;;5049948;28;20607;-66
2022/07/11 01:09:14;;;;;;;0.50;0.50;;;18.30;99.90;19.20;102232.00;;;;5034564;28;20544;-66
2022/07/11 01:12:00;;;;;;;0.50;0.50;;;18.50;99.90;18.70;102233.00;;;;5050165;28;20203;-66
2022/07/11 01:14:59;;;;;;;0.50;0.50;;;18.30;99.90;18.50;102237.00;;;;5033196;28;20651;-66
2022/07/11 01:17:45;;;;;;;0.60;0.60;;;18.10;99.90;18.40;102210.00;;;;5050024;28;20642;-66
2022/07/11 01:20:29;;;;;;;0.50;0.50;;;17.90;99.90;18.80;102237.00;;;;5049443;28;20205;-66
2022/07/11 01:23:24;;;;;;;0.53;0.53;;;18.00;99.90;18.60;102202.00;;;;5049767;28;20282;-66
2022/07/11 01:26:29;;;;;;;0.50;0.50;;;17.90;99.90;18.10;102234.00;;;;5047080;28;20553;-66
2022/07/11 01:29:24;;;;;;;0.57;0.57;;;17.70;99.90;18.10;102247.00;;;;5049746;28;20181;-66
2022/07/11 01:32:32;;;;;;;0.60;0.60;;;17.50;99.90;18.40;102241.00;;;;5032572;28;20606;-66
2022/07/11 01:35:23;;;;;;;0.50;0.50;;;17.60;99.90;18.50;102243.00;;;;5033789;28;20251;-66
2022/07/11 01:38:16;;;;;;;0.50;0.50;;;17.60;99.90;18.60;102215.00;;;;5032843;28;20184;-65
2022/07/11 01:41:07;;;;;;;0.50;0.50;;;17.80;99.90;18.50;102235.00;;;;5032777;28;20277;-66
2022/07/11 01:44:08;;;;;;;0.60;0.60;;;17.70;99.90;18.40;102233.00;;;;5032536;28;20283;-66
2022/07/11 01:46:51;;;;;;;0.50;0.50;;;17.70;99.90;18.50;102235.00;;;;5034152;28;20184;-66
2022/07/11 01:49:55;;;;;;;0.50;0.50;;;17.80;99.90;18.70;102232.00;;;;5049260;28;20218;-66
2022/07/11 01:52:59;;;;;;;0.50;0.50;;;18.00;99.90;18.80;102235.00;;;;5045267;28;20276;-66
2022/07/11 01:55:43;;;;;;;0.50;0.50;;;18.10;99.90;18.80;102235.00;;;;5033680;28;20189;-66
2022/07/11 01:58:44;;;;;;;0.50;0.50;;;18.00;99.90;18.50;102238.00;;;;5032680;28;20582;-66
2022/07/11 02:01:45;;;;;;;0.60;0.60;;;17.90;99.90;18.20;102245.00;;;;5049204;28;20230;-66
2022/07/11 02:04:29;;;;;;;0.70;0.70;;;17.70;99.90;18.70;102241.00;;;;5049546;28;20238;-66
2022/07/11 02:10:49;;;;;;;0.60;0.60;;;18.00;99.90;18.30;102242.00;;;;5033457;28;20191;-66
2022/07/11 02:13:59;;;;;;;0.70;0.70;;;17.80;99.90;18.70;102244.00;;;;5032791;28;20314;-66
2022/07/11 02:21:28;;;;;;;0.50;0.50;;;18.00;99.90;18.30;102238.00;;;;5029784;28;20432;-66
2022/07/11 02:24:17;;;;;;;0.50;0.50;;;17.90;99.90;18.50;102237.00;;;;5014950;28;20192;-66
2022/07/11 02:27:40;;;;;;;0.50;0.50;;;17.90;99.90;18.40;102209.00;;;;5014754;28;20179;-66
2022/07/11 02:30:29;;;;;;;1.30;1.30;;;17.70;99.90;18.20;102231.00;;;;5030931;28;20301;-66
2022/07/11 02:33:25;;;;;;;2.43;1.70;;;17.70;99.90;18.50;102198.00;;;;5031010;28;20211;-66
2022/07/11 02:36:34;;;;;;;0.50;0.50;;;17.80;99.90;18.60;102221.00;;;;5014985;28;20231;-65
2022/07/11 02:39:20;;;;;;;1.27;1.27;;;17.80;99.90;18.40;102220.00;;;;5032067;28;20184;-66
2022/07/11 02:42:29;;;;;;;0.60;0.60;;;17.80;99.90;18.20;102220.00;;;;5048681;28;20181;-66
2022/07/11 02:45:30;;;;;;;0.80;0.80;;;17.70;99.90;18.50;102187.00;;;;5033476;28;20212;-66
2022/07/11 02:48:33;;;;;;;1.13;1.13;;;17.80;99.90;18.50;102208.00;;;;5033111;28;20226;-66
2022/07/11 02:51:37;;;;;;;0.60;0.60;;;17.70;99.90;18.30;102212.00;;;;5047814;28;20257;-66
2022/07/11 02:54:47;;;;;;;0.70;0.70;;;17.50;99.90;18.50;102204.00;;;;5048136;28;20183;-66
2022/07/11 02:57:49;;;;;;;2.67;2.53;;;17.60;99.90;18.20;102212.00;;;;5031993;28;20296;-65
2022/07/11 03:00:57;;;;;;;0.60;0.60;;;17.70;99.90;18.20;102212.00;;;;5032829;28;20201;-66
2022/07/11 03:03:40;;;;;;;0.60;0.60;;;17.70;99.90;18.20;102210.00;;;;5032264;28;20192;-66
2022/07/11 03:06:44;;;;;;;0.60;0.60;;;17.60;99.90;18.30;102213.00;;;;5048438;28;20172;-66
2022/07/11 03:09:35;;;;;;;0.70;0.70;;;17.50;99.90;18.50;102195.00;;;;5048693;28;20179;-66
2022/07/11 03:12:36;;;;;;;0.73;0.73;;;17.60;99.90;18.20;102207.00;;;;5031710;28;20216;-66
2022/07/11 03:15:42;;;;;;;0.70;0.70;;;17.60;99.90;18.20;102216.00;;;;5048156;28;20571;-66
2022/07/11 03:18:48;;;;;;;0.63;0.63;;;17.40;99.90;18.30;102218.00;;;;5048337;28;20274;-66
2022/07/11 03:21:53;;;;;;;0.50;0.50;;;17.50;99.90;18.00;102213.00;;;;5051989;28;20179;-66
2022/07/11 03:24:48;;;;;;;0.60;0.60;;;17.60;99.90;18.20;102219.00;;;;5051490;28;20189;-66
2022/07/11 03:27:40;;;;;;;0.60;0.60;;;17.50;99.90;18.30;102222.00;;;;5036698;28;20238;-66
2022/07/11 03:30:29;;;;;;;0.60;0.60;;;17.50;99.90;18.30;102214.00;;;;5036453;28;20266;-66
2022/07/11 03:33:29;;;;;;;0.60;0.60;;;17.50;99.90;18.10;102217.00;;;;5034976;28;20696;-66
2022/07/11 03:36:16;;;;;;;0.63;0.63;;;17.50;99.90;18.00;102217.00;;;;5035362;28;20183;-66
2022/07/11 03:39:00;;;;;;;0.60;0.60;;;17.40;99.90;17.60;102233.00;;;;5035376;28;20195;-66
2022/07/11 03:41:44;;;;;;;0.90;0.90;;;17.20;99.90;17.90;102224.00;;;;5036503;28;20184;-66
2022/07/11 03:44:27;;;;;;;0.60;0.60;;;17.20;99.90;17.80;102235.00;;;;5035352;28;20189;-66
2022/07/11 03:47:11;;;;;;;1.00;1.00;;;17.20;99.90;18.00;102231.00;;;;5015173;28;20203;-66
2022/07/11 03:50:11;;;;;;;2.03;1.93;;;17.30;99.90;18.00;102241.00;;;;5015318;28;20175;-66
2022/07/11 03:53:05;;;;;;;2.90;0.87;;;17.40;99.90;17.90;102229.00;;;;5016382;28;20207;-66
2022/07/11 03:56:06;;;;;;;1.97;1.77;;;17.40;99.90;18.30;102231.00;;;;5015011;28;20593;-66
2022/07/11 03:58:52;;;;;;;0.57;0.57;;;17.60;99.90;18.20;102234.00;;;;5015062;28;20187;-66
2022/07/11 04:01:58;;;;;;;0.50;0.50;;;17.50;99.90;18.30;102222.00;;;;5014969;28;20175;-66
2022/07/11 04:04:58;;;;;;;0.50;0.50;;;17.60;99.90;18.20;102221.00;;;;5014562;28;20184;-66
2022/07/11 04:08:07;;;;;;;1.70;1.60;;;17.60;99.90;18.40;102222.00;;;;5014829;28;20566;-66
2022/07/11 04:11:08;;;;;;;0.50;0.50;;;17.60;99.90;18.60;102224.00;;;;5014767;28;20180;-66
2022/07/11 04:14:20;;;;;;;0.77;0.77;;;17.80;99.90;17.90;102223.00;;;;5014599;28;20181;-66
2022/07/11 04:17:26;;;;;;;0.60;0.60;;;17.60;99.90;18.00;102220.00;;;;5015981;28;20703;-66
2022/07/11 04:20:10;;;;;;;2.30;2.20;;;17.40;99.90;17.80;102217.00;;;;5014641;28;20656;-66
2022/07/11 04:22:38;;;;;;;0.60;0.60;;;17.30;99.90;16.90;102232.00;;;;5000432;28;20186;-66
2022/07/11 04:25:24;;;;;;;0.40;0.40;;;16.90;99.90;17.20;102233.00;;;;5049243;28;20181;-66
2022/07/11 04:28:08;;;;;;;0.63;0.63;;;16.80;99.90;18.00;102231.00;;;;5034385;28;20184;-66
2022/07/11 04:31:11;;;;;;;0.40;0.40;;;17.10;99.90;17.80;102229.00;;;;5017206;28;20194;-66
2022/07/11 04:33:54;;;;;;;1.03;1.03;;;17.30;99.90;18.00;102239.00;;;;5034172;28;20192;-66
2022/07/11 04:36:38;;;;;;;0.50;0.50;;;17.40;99.90;19.00;102225.00;;;;5035273;28;20657;-66
2022/07/11 04:39:12;;;;;;;0.40;0.40;;;18.10;99.90;18.70;102228.00;;;;5033881;28;20172;-66
2022/07/11 04:41:45;;;;;;;0.80;0.80;;;18.30;99.90;19.10;102216.00;;;;5034208;28;20182;-66
2022/07/11 04:44:32;;;;;;;0.40;0.40;;;18.50;99.90;19.10;102224.00;;;;5035139;28;20183;-66
2022/07/11 04:47:16;;;;;;;0.30;0.30;;;18.60;99.90;19.60;102229.00;;;;5035074;28;20260;-66
2022/07/11 04:50:40;;;;;;;0.30;0.30;;;18.90;99.90;18.60;102230.00;;;;5035011;28;20193;-66
2022/07/11 04:53:41;;;;;;;2.60;1.40;;;18.60;99.90;19.30;102228.00;;;;5051750;28;20225;-66
2022/07/11 04:56:42;;;;;;;1.53;1.43;;;18.90;99.90;17.70;102232.00;;;;5034945;28;20229;-66
2022/07/11 04:59:34;;;;;;;0.30;0.30;;;18.30;99.90;17.90;102244.00;;;;5033843;28;20176;-66
2022/07/11 05:02:35;;;;;;;0.33;0.33;;;17.80;99.90;17.80;102246.00;;;;5034821;28;20192;-66
2022/07/11 05:05:36;;;;;;;0.30;0.30;;;17.70;99.90;18.20;102236.00;;;;5033480;28;20664;-66
2022/07/11 05:08:39;;;;;;;0.70;0.70;;;17.80;99.90;17.80;102250.00;;;;5034549;28;20290;-66
2022/07/11 05:12:06;;;;;;;2.50;2.40;;;17.60;99.90;17.00;102263.00;;;;5033558;28;20209;-66
2022/07/11 05:15:10;;;;;;;0.50;0.50;;;17.20;99.90;17.10;102273.00;;;;5033148;28;20188;-66
2022/07/11 05:17:49;;;;;;;0.53;0.53;;;16.90;99.90;17.70;102269.00;;;;5034832;28;20651;-66
2022/07/11 05:20:40;;;;;;;1.33;1.27;;;17.10;99.90;18.50;102277.00;;;;5033162;28;20192;-66
2022/07/11 05:23:32;;;;;;;1.27;1.17;;;17.70;99.90;18.80;102243.00;;;;5033097;28;20182;-66
2022/07/11 05:26:58;;;;;;;0.60;0.60;;;18.10;99.90;19.10;102277.00;;;;5034449;28;20200;-66
2022/07/11 05:30:02;;;;;;;1.23;1.20;;;18.30;99.90;18.90;102256.00;;;;5033839;28;20213;-66
2022/07/11 05:32:45;;;;;;;0.80;0.80;;;18.50;99.90;18.10;102257.00;;;;5034219;28;20676;-66
2022/07/11 05:35:36;;;;;;;0.50;0.50;;;18.10;99.90;18.20;102278.00;;;;5016382;28;20207;-69
2022/07/11 05:38:30;;;;;;;0.57;0.57;;;17.90;99.90;19.00;102279.00;;;;5033202;28;20209;-67
2022/07/11 05:41:14;;;;;;;1.00;1.00;;;18.20;99.90;19.40;102275.00;;;;5016476;28;20200;-67
2022/07/11 05:43:57;;;;;;;0.50;0.50;;;18.60;99.90;19.30;102269.00;;;;5032539;28;20622;-67
2022/07/11 05:47:01;;;;;;;0.60;0.60;;;18.80;99.90;19.80;102271.00;;;;5032784;28;20187;-67
2022/07/11 05:50:03;;;;;;;0.60;0.60;;;19.10;99.90;21.20;102249.00;;;;5032561;28;20186;-67
2022/07/11 05:52:48;;;;;;;0.32;0.32;;;19.90;99.90;22.30;102242.00;;;;5032646;28;20296;-67
2022/07/11 05:55:49;;;;;;;0.30;0.30;;;21.00;99.90;24.20;102245.00;;;;5032597;28;20213;-67
2022/07/11 05:58:36;;;;;;;0.20;0.20;;;22.50;99.90;25.90;102261.00;;;;5016424;28;20228;-67
2022/07/11 06:01:41;;;;;;;2.88;2.78;;;24.20;99.90;25.60;102282.00;;;;5032959;28;20214;-67
2022/07/11 06:04:33;;;;;;;0.65;0.65;;;24.80;99.90;22.80;102246.00;;;;5016043;28;20209;-67
2022/07/11 06:10:54;;;;;;;0.20;0.20;;;23.80;99.90;25.50;102259.00;;;;5032826;28;20548;-67
2022/07/11 06:13:55;;;;;;;0.57;0.38;;;24.00;99.90;23.50;102272.00;;;;5033230;28;20567;-67
2022/07/11 06:17:04;;;;;;;0.68;0.68;;;24.10;99.90;25.30;102287.00;;;;5032339;28;20621;-66
2022/07/11 06:20:05;;;;;;;0.20;0.20;;;24.00;99.90;26.90;102336.00;;;;5032632;28;20227;-67
2022/07/11 06:22:53;;;;;;;1.20;0.93;;;25.20;99.90;23.10;102263.00;;;;5015841;28;20224;-66
2022/07/11 06:26:15;;;;;;;1.95;1.85;;;23.70;99.90;21.70;102231.00;;;;5032506;28;20752;-66
2022/07/11 06:29:35;;;;;;;0.20;0.20;;;22.80;99.90;23.00;102261.00;;;;5033127;28;20175;-66
2022/07/11 06:32:31;;;;;;;1.38;1.27;;;22.20;99.90;25.50;102297.00;;;;5031724;28;20693;-66
2022/07/11 06:35:22;;;;;;;0.45;0.40;;;23.90;99.90;26.00;102328.00;;;;5032033;28;20233;-67
2022/07/11 06:38:23;;;;;;;0.10;0.10;;;24.70;99.90;27.70;102370.00;;;;5032059;28;20285;-67
2022/07/11 06:41:27;;;;;;;2.17;2.08;;;26.00;99.90;24.30;102343.00;;;;5033110;28;20175;-67
2022/07/11 06:44:30;;;;;;;4.57;2.78;;;25.90;99.90;23.00;102290.00;;;;5000889;28;20217;-66
2022/07/11 06:47:43;;;;;;;1.65;1.55;;;24.00;99.90;23.40;102297.00;;;;5016755;28;20638;-66
2022/07/11 06:50:34;;;;;;;1.25;1.15;;;23.50;99.90;23.50;102292.00;;;;5018588;28;20194;-67
2022/07/11 06:53:30;;;;;;;1.05;0.95;;;23.20;99.90;24.70;102308.00;;;;5016142;28;20206;-67
2022/07/11 06:56:34;;;;;;;0.40;0.40;;;23.70;99.90;25.90;102345.00;;;;5019627;28;20190;-67
2022/07/11 06:59:56;;;;;;;0.10;0.10;;;25.00;99.90;27.50;102375.00;;;;5037006;28;20588;-67
2022/07/11 07:02:59;;;;;;;1.25;1.15;;;26.40;99.90;28.50;102391.00;;;;5036971;28;20171;-67
2022/07/11 07:06:05;;;;;;;0.55;0.55;;;27.70;99.90;28.30;102377.00;;;;5036802;28;20269;-67
2022/07/11 07:08:54;;;;;;;0.30;0.30;;;26.70;99.90;25.90;102334.00;;;;5036880;28;20182;-67
2022/07/11 07:11:58;;;;;;;1.17;1.17;;;26.00;99.90;27.60;102403.00;;;;5035286;28;20262;-67
2022/07/11 07:14:52;;;;;;;0.10;0.10;;;26.70;99.90;26.90;102383.00;;;;5029568;28;20214;-67
2022/07/11 07:17:41;;;;;;;1.45;1.30;;;26.60;99.90;25.60;102370.00;;;;5052338;28;20171;-67
2022/07/11 07:20:44;;;;;;;1.15;1.15;;;26.20;99.90;25.70;102370.00;;;;5035514;28;20266;-67
2022/07/11 07:23:45;;;;;;;0.10;0.10;;;26.00;99.90;26.30;102329.00;;;;5020511;28;20178;-67
2022/07/11 07:26:54;;;;;;;2.35;1.80;;;25.20;99.90;24.40;102332.00;;;;5036565;28;20524;-67
2022/07/11 07:30:02;;;;;;;2.67;2.38;;;24.80;99.90;23.80;102337.00;;;;5036699;28;20198;-67
2022/07/11 07:32:53;;;;;;;1.70;1.60;;;24.60;99.90;24.70;102318.00;;;;5035178;28;20222;-67
2022/07/11 07:35:44;;;;;;;0.93;0.93;;;23.90;99.90;24.00;102289.00;;;;5036204;28;20215;-66
2022/07/11 07:39:08;;;;;;;3.53;2.55;;;23.70;99.90;25.60;102359.00;;;;5034955;28;20659;-66
2022/07/11 07:42:12;;;;;;;2.72;2.47;;;25.10;99.90;28.50;102381.00;;;;5035695;28;20171;-67
2022/07/11 07:45:34;;;;;;;0.10;0.10;;;26.80;99.90;30.80;102421.00;;;;5035093;28;20178;-67
2022/07/11 07:48:52;;;;;;;0.15;0.15;;;28.80;99.90;27.30;102424.00;;;;5036275;28;20593;-67
2022/07/11 07:51:53;;;;;;;0.65;0.65;;;28.60;99.90;27.60;102416.00;;;;5035031;28;20645;-67
2022/07/11 07:54:43;;;;;;;0.10;0.10;;;27.60;99.90;26.80;102414.00;;;;5035876;28;20198;-67
2022/07/11 07:57:47;;;;;;;2.08;1.77;;;27.30;99.90;27.10;102421.00;;;;5035861;28;20206;-67
2022/07/11 08:04:25;;;;;;;0.10;0.10;;;26.70;99.90;28.20;102435.00;;;;5034077;28;20197;-66
2022/07/11 08:07:17;;;;;;;0.20;0.20;;;27.30;99.90;29.70;102436.00;;;;5034820;28;20229;-67
2022/07/11 08:10:09;;;;;;;1.27;1.27;;;27.80;99.90;29.80;102455.00;;;;5034144;28;20176;-67
2022/07/11 08:13:11;;;;;;;0.10;0.10;;;28.70;99.90;27.70;102411.00;;;;5035679;28;20237;-66
2022/07/11 08:16:13;;;;;;;0.60;0.60;;;27.40;99.90;28.40;102434.00;;;;5035584;28;20175;-67
2022/07/11 08:19:18;;;;;;;1.55;1.45;;;28.30;99.90;30.40;102439.00;;;;5035792;28;20210;-67
2022/07/11 08:22:27;;;;;;;0.80;0.73;;;28.80;99.90;25.50;102402.00;;;;5035941;28;20221;-67
2022/07/11 08:25:33;;;;;;;0.35;0.35;;;27.10;99.90;27.20;102415.00;;;;5035379;28;20270;-67
2022/07/11 08:28:01;;;;;;;1.65;1.55;;;27.10;99.90;25.70;102390.00;;;;5034296;28;20198;-67
2022/07/11 08:30:56;;;;;;;0.17;0.17;;;26.00;99.90;27.70;102434.00;;;;5035751;28;20254;-67
2022/07/11 08:34:02;;;;;;;0.85;0.73;;;27.30;99.90;28.90;102431.00;;;;5034073;28;20285;-67
2022/07/11 08:37:39;;;;;;;0.75;0.75;;;27.40;99.90;31.50;102447.00;;;;5035356;28;20175;-67
2022/07/11 08:40:27;;;;;;;0.30;0.30;;;29.30;99.90;30.70;102451.00;;;;5036555;28;20213;-67
2022/07/11 08:43:24;;;;;;;3.55;1.92;;;30.30;99.90;28.50;102432.00;;;;5017410;28;20193;-67
2022/07/11 08:46:26;;;;;;;1.42;1.33;;;29.10;99.90;30.00;102431.00;;;;5050468;28;20198;-67
2022/07/11 08:49:12;;;;;;;2.00;0.73;;;29.30;99.90;32.00;102430.00;;;;5034901;28;20178;-67
2022/07/11 08:52:15;;;;;;;0.10;0.10;;;30.50;99.90;28.30;102440.00;;;;5035191;28;20210;-67
2022/07/11 08:55:16;;;;;;;0.40;0.40;;;30.20;99.90;27.10;102414.00;;;;5034820;28;20707;-67
2022/07/11 08:58:08;;;;;;;0.20;0.20;;;28.20;99.90;29.30;102444.00;;;;5017637;28;20224;-67
2022/07/11 09:00:59;;;;;;;0.05;0.05;;;28.40;99.90;29.10;102412.00;;;;5034013;28;20175;-67
2022/07/11 09:03:51;;;;;;;0.10;0.10;;;28.20;99.90;30.40;102439.00;;;;5014466;28;20210;-67
2022/07/11 09:06:54;;;;;;;0.20;0.20;;;29.10;99.90;27.90;102423.00;;;;5033573;28;20266;-67
2022/07/11 09:10:01;;;;;;;0.20;0.20;;;28.00;99.90;30.40;102433.00;;;;5034615;28;20224;-67
2022/07/11 09:13:10;;;;;;;0.63;0.63;;;29.10;99.90;31.20;102436.00;;;;5033879;28;20213;-67
2022/07/11 09:16:17;;;;;;;2.75;2.53;;;29.80;99.90;29.30;102438.00;;;;5032757;28;20175;-67
2022/07/11 09:19:23;;;;;;;3.15;2.85;;;29.60;99.90;28.80;102423.00;;;;5033543;28;20623;-67
2022/07/11 09:25:31;;;;;;;0.20;0.20;;;29.00;99.90;30.30;102434.00;;;;5034219;28;20193;-67
2022/07/11 09:28:27;;;;;;;2.50;0.57;;;28.70;99.90;28.60;102435.00;;;;5046919;28;20221;-67
2022/07/11 09:31:17;;;;;;;0.20;0.20;;;28.60;99.90;29.50;102416.00;;;;5032912;28;20187;-67
2022/07/11 09:34:51;;;;;;;0.30;0.30;;;28.20;99.90;32.10;102414.00;;;;5033119;28;20185;-68
2022/07/11 09:37:44;;;;;;;0.25;0.25;;;30.00;99.90;29.50;102425.00;;;;4992466;28;20657;-67
2022/07/11 09:40:14;;;;;;;0.10;0.10;;;29.20;99.90;30.70;102432.00;;;;4990406;28;20621;-68
2022/07/11 09:43:24;;;;;;;0.10;0.10;;;29.40;99.90;31.60;102442.00;;;;4992762;28;20207;-68
2022/07/11 09:46:28;;;;;;;0.63;0.63;;;30.20;99.90;29.20;102443.00;;;;4982967;28;20184;-67
2022/07/11 09:49:16;;;;;;;0.10;0.10;;;28.90;99.90;29.60;102434.00;;;;4992328;28;20191;-67
2022/07/11 09:52:12;;;;;;;0.73;0.73;;;29.30;99.90;32.00;102430.00;;;;5017866;28;20215;-67
2022/07/11 09:55:00;;;;;;;0.10;0.10;;;30.20;99.90;32.40;102438.00;;;;5032692;28;20207;-67
2022/07/11 09:57:58;;;;;;;1.55;1.35;;;30.90;99.90;28.00;102440.00;;;;5032723;28;20199;-67
2022/07/11 10:00:48;;;;;;;0.75;0.75;;;30.20;99.90;25.00;102354.00;;;;5015943;28;20238;-67
2022/07/11 10:03:49;;;;;;;0.40;0.40;;;26.30;99.90;28.60;102422.00;;;;5032483;28;20203;-67
2022/07/11 10:06:33;;;;;;;0.95;0.95;;;27.00;99.90;28.60;102426.00;;;;5033264;28;20610;-67
2022/07/11 10:09:51;;;;;;;0.10;0.10;;;27.90;99.90;30.90;102421.00;;;;5033776;28;20543;-67
2022/07/11 10:12:44;;;;;;;0.20;0.20;;;29.30;99.90;31.20;102426.00;;;;5032811;28;20549;-67
2022/07/11 10:15:34;;;;;;;0.50;0.50;;;29.60;99.90;30.50;102427.00;;;;5033685;28;20178;-67
2022/07/11 10:18:24;;;;;;;0.10;0.10;;;30.20;99.90;31.20;102423.00;;;;5033780;28;20633;-67
2022/07/11 10:33:31;;;;;;;0.22;0.22;;;28.10;99.90;30.60;102444.00;;;;5070414;28;20547;-67
2022/07/11 10:36:27;;;;;;;0.10;0.10;;;29.30;99.90;31.70;102413.00;;;;5049703;28;20256;-67
2022/07/11 10:39:25;;;;;;;1.45;1.35;;;30.20;99.90;31.40;102440.00;;;;5019281;28;20184;-67
2022/07/11 10:42:56;;;;;;;1.75;1.65;;;30.80;99.90;28.20;102445.00;;;;5049225;28;20543;-67
2022/07/11 10:45:55;;;;;;;1.25;1.15;;;29.70;99.90;30.10;102451.00;;;;5049430;28;20202;-67
2022/07/11 10:49:06;;;;;;;4.10;3.25;;;29.50;99.90;27.30;102447.00;;;;5050505;28;20178;-67
2022/07/11 10:52:02;;;;;;;0.10;0.10;;;27.80;99.90;28.70;102447.00;;;;5032444;28;20566;-67
2022/07/11 10:55:36;;;;;;;0.45;0.38;;;27.60;99.90;30.40;102441.00;;;;5062019;28;20186;-67
2022/07/11 10:58:21;;;;;;;0.10;0.10;;;29.00;99.90;32.70;102437.00;;;;4976214;28;20284;-67
2022/07/11 11:01:47;;;;;;;0.47;0.47;;;30.80;99.90;32.40;102439.00;;;;5011961;28;20186;-67
2022/07/11 11:04:57;;;;;;;2.55;0.50;;;32.00;99.90;28.40;102446.00;;;;5027886;28;20654;-67
2022/07/11 11:07:40;;;;;;;0.70;0.70;;;29.80;99.90;31.00;102441.00;;;;5012410;28;20273;-67
2022/07/11 11:10:45;;;;;;;0.80;0.80;;;30.10;99.90;29.80;102450.00;;;;5028096;28;20194;-67
2022/07/11 11:13:42;;;;;;;0.93;0.93;;;29.70;99.90;30.80;102437.00;;;;4973168;28;20190;-67
2022/07/11 11:20:38;;;;;;;1.08;0.90;;;28.90;99.90;26.40;102428.00;;;;5027115;28;20305;-67
2022/07/11 11:23:59;;;;;;;0.55;0.55;;;26.70;99.90;30.10;102438.00;;;;4989521;28;20206;-67
2022/07/11 11:27:37;;;;;;;0.20;0.20;;;28.40;99.90;27.90;102430.00;;;;5045757;28;20541;-66
2022/07/11 11:30:52;;;;;;;0.75;0.75;;;28.20;99.90;28.90;102430.00;;;;5044095;28;20567;-67
2022/07/11 11:34:11;;;;;;;0.10;0.10;;;28.10;99.90;30.40;102423.00;;;;5031378;28;20202;-67
2022/07/11 11:37:15;;;;;;;0.45;0.45;;;29.90;99.90;31.80;102415.00;;;;5048333;28;20171;-67
2022/07/11 11:40:07;;;;;;;6.70;6.13;;;30.50;99.90;30.60;102414.00;;;;5048494;28;20213;-67
2022/07/11 11:43:17;;;;;;;1.35;1.05;;;30.60;99.90;30.10;102416.00;;;;5047365;28;20175;-67
2022/07/11 11:46:18;;;;;;;0.43;0.43;;;30.10;99.90;32.40;102397.00;;;;5035091;28;20278;-67
2022/07/11 11:49:22;;;;;;;0.10;0.10;;;31.20;99.90;32.50;102394.00;;;;5036099;28;20179;-67
2022/07/11 11:52:24;;;;;;;0.47;0.40;;;31.70;99.90;32.10;102386.00;;;;5035089;28;20566;-67
2022/07/11 11:59:03;;;;;;;0.10;0.10;;;29.00;99.90;31.50;102387.00;;;;5031463;28;20191;-67
2022/07/11 12:02:12;;;;;;;0.47;0.47;;;29.90;99.90;30.60;102402.00;;;;5034441;28;20187;-67
2022/07/11 12:04:59;;;;;;;0.20;0.20;;;29.80;99.90;28.50;102378.00;;;;5017944;28;20274;-67
2022/07/11 12:08:00;;;;;;;0.43;0.43;;;28.50;99.90;30.60;102370.00;;;;5034361;28;20178;-67
2022/07/11 12:11:03;;;;;;;0.82;0.82;;;28.90;99.90;30.00;102397.00;;;;5034643;28;20186;-67
2022/07/11 12:14:07;;;;;;;0.10;0.10;;;29.50;99.90;31.50;102376.00;;;;5034345;28;20179;-67
2022/07/11 12:17:08;;;;;;;0.50;0.50;;;30.00;99.90;27.90;102409.00;;;;5034486;28;20175;-67
2022/07/11 12:20:10;;;;;;;0.20;0.20;;;29.00;99.90;29.70;102397.00;;;;5035432;28;20186;-67
2022/07/11 12:23:00;;;;;;;0.20;0.20;;;28.80;99.90;28.40;102401.00;;;;5033785;28;20230;-66
2022/07/11 12:26:04;;;;;;;0.77;0.52;;;28.00;99.90;28.90;102400.00;;;;5035546;28;20652;-67
2022/07/11 12:29:11;;;;;;;0.20;0.20;;;28.30;99.90;28.50;102400.00;;;;5021774;28;20641;-67
2022/07/11 12:31:59;;;;;;;0.63;0.63;;;27.80;99.90;29.50;102390.00;;;;5034034;28;20207;-67
2022/07/11 12:35:12;;;;;;;0.17;0.17;;;28.10;99.90;29.80;102384.00;;;;5035313;28;20684;-67
2022/07/11 12:38:13;;;;;;;0.10;0.10;;;28.70;99.90;30.30;102389.00;;;;5038136;28;20229;-67
2022/07/11 12:41:20;;;;;;;0.57;0.57;;;28.90;99.90;29.40;102392.00;;;;5033907;28;20187;-68
2022/07/11 12:47:51;;;;;;;0.40;0.40;;;28.60;99.90;29.40;102362.00;;;;5034189;28;20252;-66
2022/07/11 12:50:54;;;;;;;0.40;0.40;;;28.30;99.90;29.30;102376.00;;;;5033940;28;20202;-66
2022/07/11 12:53:58;;;;;;;0.10;0.10;;;28.20;99.90;30.20;102375.00;;;;5033535;28;20549;-66
2022/07/11 12:56:54;;;;;;;0.40;0.40;;;28.50;99.90;29.00;102375.00;;;;5034203;28;20543;-66
2022/07/11 12:59:47;;;;;;;0.20;0.20;;;28.20;99.90;28.10;102374.00;;;;5033299;28;20548;-68
2022/07/11 13:02:40;;;;;;;0.10;0.10;;;27.60;99.90;27.80;102355.00;;;;5033750;28;20186;-67
2022/07/11 13:05:46;;;;;;;0.10;0.10;;;27.40;99.90;28.10;102367.00;;;;5034468;28;20207;-68
2022/07/11 13:08:54;;;;;;;0.40;0.40;;;27.10;99.90;27.70;102372.00;;;;5021363;28;20167;-67
2022/07/11 13:12:05;;;;;;;0.38;0.38;;;27.00;99.90;28.30;102383.00;;;;5049378;28;20207;-67
2022/07/11 13:15:14;;;;;;;0.55;0.55;;;27.00;99.90;29.10;102367.00;;;;5044825;28;20674;-66
2022/07/11 13:18:06;;;;;;;0.57;0.43;;;27.70;99.90;29.00;102362.00;;;;5034721;28;20179;-66
2022/07/11 13:21:09;;;;;;;0.10;0.10;;;27.90;99.90;28.60;102373.00;;;;5034592;28;20215;-68
2022/07/11 13:23:55;;;;;;;0.25;0.25;;;27.60;99.90;29.00;102342.00;;;;5020901;28;20177;-67
2022/07/11 13:27:00;;;;;;;0.20;0.20;;;27.80;99.90;28.30;102357.00;;;;5032920;28;20262;-68
2022/07/11 13:30:10;;;;;;;0.65;0.65;;;27.80;99.90;28.60;102335.00;;;;5034374;28;20171;-68
2022/07/11 13:33:04;;;;;;;0.55;0.43;;;27.60;99.90;27.90;102365.00;;;;5021498;28;20305;-67
2022/07/11 13:36:27;;;;;;;1.67;1.55;;;27.30;99.90;28.40;102362.00;;;;5032957;28;20175;-68
2022/07/11 13:39:31;;;;;;;0.10;0.10;;;27.40;99.90;29.60;102358.00;;;;5032772;28;20175;-67
2022/07/11 13:42:35;;;;;;;0.20;0.20;;;27.90;99.90;30.10;102358.00;;;;5016488;28;20217;-66
2022/07/11 13:45:27;;;;;;;0.20;0.20;;;28.60;99.90;29.90;102354.00;;;;5033030;28;20178;-66
2022/07/11 13:48:29;;;;;;;0.45;0.45;;;28.70;99.90;27.90;102329.00;;;;5033149;28;20220;-67